Etusivu
METAR-TAF:

METAR-TAF

Lentoasemat :

Ford Airport

Iron Mountain / Kingsford, Michigan, Yhdysvallat

Leveyspiiri: 45-48-51N, Pituuspiiri: 088-06-32W, korkeus merenpinnasta: 360 m

Tämänhetkinen sää

Tämä raportti tehtiin 14 minuuttia sitten, kello 17.54 UTC
Tuuli 4 kn lounaasta
Lämpötila 4°C
Kosteus 65%
Ilmanpaine 1007 hPa
Näkyvyys: 16.1 km
Pilvistä 2800 ft:n korkeudessa

METAR: KIMT 191754Z AUTO 22004KT 10SM OVC028 04/M02 A2975 RMK AO2 SLP087 T00441022 10050 21006 50006

Aika: 13:08 (18:08 UTC)


TAF: puuttuu

Säähavainnot ja -ennusteet yli 4000 lentoasemalta (METAR- ja TAF-raportit).

Käytössä olevat sääasemat on merkitty karttaan keltaisilla ja punaisilla pisteillä.

Aseta hiiri pisteen päälle nähdäksesi sääaseman nimen.

Klikkaa sitten nähdäksesi säähavainnot ja -ennusteet.

Kartan vaihtaminen: klikkaa mustalla rastilla varustettuja vihreitä pisteitä, niin voit zoomata sisään; viivalla varustettua vihreää pistettä, niin voit zoomata ulos tai vihreitä nuolia, niin pääset viereisille kartoille.


METAR-TAF: